Time;durP1;ratioP1;P1;durP2;ratioP2;P2;SDS_P1;SDS_P2;PMS_P1;PMS_P2;Temp;Humidity;BMP_temperature;BMP_pressure;BME280_temperature;BME280_humidity;BME280_pressure;Samples;Min_cycle;Max_cycle;Signal;HPM_P1;HPM_P2
2023/05/11 00:00:26;;;;;;;6.10;1.90;;;;;;;8.76;100.00;95695.59;5053471;28;20473;-69
2023/05/11 00:02:51;;;;;;;6.22;1.88;;;;;;;8.75;100.00;95700.03;5051370;28;20444;-69
2023/05/11 00:05:17;;;;;;;3.70;1.90;;;;;;;8.76;100.00;95698.22;5061632;28;20025;-69
2023/05/11 00:07:42;;;;;;;11.48;2.22;;;;;;;8.77;100.00;95690.25;5053099;28;20021;-69
2023/05/11 00:10:08;;;;;;;5.90;1.90;;;;;;;8.78;100.00;95691.91;5055031;28;20485;-69
2023/05/11 00:12:33;;;;;;;3.25;2.20;;;;;;;8.70;100.00;95696.94;5052979;28;20492;-68
2023/05/11 00:14:59;;;;;;;2.00;1.88;;;;;;;8.67;100.00;95689.34;5052011;28;20021;-69
2023/05/11 00:17:24;;;;;;;2.20;1.90;;;;;;;8.60;100.00;95691.66;5051453;28;20074;-69
2023/05/11 00:19:50;;;;;;;4.90;2.10;;;;;;;8.57;100.00;95690.13;5051959;28;20025;-69
2023/05/11 00:22:15;;;;;;;4.45;2.47;;;;;;;8.52;100.00;95686.22;5054067;28;20467;-68
2023/05/11 00:24:41;;;;;;;3.38;1.80;;;;;;;8.44;100.00;95679.81;5054367;28;20025;-68
2023/05/11 00:27:06;;;;;;;3.08;1.80;;;;;;;8.36;100.00;95681.41;5053784;28;20048;-69
2023/05/11 00:29:31;;;;;;;3.00;2.00;;;;;;;8.35;100.00;95677.13;5047455;28;20024;-69
2023/05/11 00:31:57;;;;;;;6.40;2.53;;;;;;;8.35;100.00;95675.31;5051617;28;20025;-69
2023/05/11 00:34:22;;;;;;;2.97;1.80;;;;;;;8.35;100.00;95675.31;5047670;28;20393;-68
2023/05/11 00:36:48;;;;;;;3.28;1.88;;;;;;;8.27;100.00;95678.56;5051133;28;20051;-69
2023/05/11 00:39:13;;;;;;;3.20;1.98;;;;;;;8.21;100.00;95673.03;5050136;28;20038;-68
2023/05/11 00:41:39;;;;;;;3.75;2.35;;;;;;;8.17;100.00;95677.69;5066258;28;20057;-68
2023/05/11 00:44:04;;;;;;;2.00;1.90;;;;;;;8.15;100.00;95671.75;5051050;28;20039;-69
2023/05/11 00:46:30;;;;;;;4.20;2.20;;;;;;;8.16;100.00;95674.22;5051388;28;20021;-68
2023/05/11 00:48:56;;;;;;;2.35;1.95;;;;;;;8.16;100.00;95673.41;5050940;28;20389;-69
2023/05/11 00:51:22;;;;;;;3.97;1.88;;;;;;;8.17;100.00;95670.63;5050360;28;20196;-69
2023/05/11 00:53:48;;;;;;;2.72;1.65;;;;;;;8.13;100.00;95671.84;5053937;28;20087;-68
2023/05/11 00:56:14;;;;;;;2.05;1.80;;;;;;;8.09;100.00;95664.41;5053492;28;20028;-69
2023/05/11 00:58:40;;;;;;;4.90;1.92;;;;;;;8.05;100.00;95669.06;5051946;28;20035;-68
2023/05/11 01:01:06;;;;;;;2.35;1.70;;;;;;;8.01;100.00;95665.84;5051658;28;20025;-69
2023/05/11 01:03:32;;;;;;;3.22;1.80;;;;;;;7.95;100.00;95673.38;5047515;28;20251;-69
2023/05/11 01:06:09;;;;;;;5.03;1.90;;;;;;;7.81;100.00;95657.00;5051453;28;20112;-68
2023/05/11 01:08:44;;;;;;;5.97;2.05;;;;;;;7.84;100.00;95658.53;5047833;28;20504;-69
2023/05/11 01:11:44;;;;;;;2.60;1.95;;;;;;;7.77;100.00;95655.59;5049488;28;20021;-69
2023/05/11 01:14:34;;;;;;;2.67;1.83;;;;;;;7.71;100.00;95662.16;5050857;28;20116;-69
2023/05/11 01:17:09;;;;;;;4.43;2.20;;;;;;;7.63;100.00;95661.97;5052214;28;20028;-69
2023/05/11 01:19:45;;;;;;;3.53;1.77;;;;;;;7.58;100.00;95664.94;5053267;28;20397;-68
2023/05/11 01:22:52;;;;;;;1.85;1.75;;;;;;;7.55;100.00;95666.97;5052302;28;20400;-69
2023/05/11 01:25:56;;;;;;;6.22;2.40;;;;;;;7.53;100.00;95666.28;5045341;28;20508;-69
2023/05/11 01:29:00;;;;;;;4.97;2.33;;;;;;;7.49;100.00;95664.84;5041988;28;20066;-68
2023/05/11 01:31:30;;;;;;;8.00;1.95;;;;;;;7.53;100.00;95668.88;5049681;28;20485;-69
2023/05/11 01:34:02;;;;;;;3.83;2.00;;;;;;;7.54;100.00;95667.94;5047024;28;20067;-68
2023/05/11 01:36:33;;;;;;;2.85;1.83;;;;;;;7.57;100.00;95662.44;5045122;28;20040;-69
2023/05/11 01:39:09;;;;;;;4.32;2.08;;;;;;;7.58;100.00;95671.97;5045009;28;20057;-69
2023/05/11 01:41:37;;;;;;;4.95;2.10;;;;;;;7.59;100.00;95669.22;5053713;28;20032;-69
2023/05/11 01:44:06;;;;;;;2.78;1.90;;;;;;;7.67;100.00;95671.25;5051275;28;20108;-68
2023/05/11 01:46:33;;;;;;;4.63;2.20;;;;;;;7.70;100.00;95670.13;5050899;28;20507;-69
2023/05/11 01:49:01;;;;;;;3.20;2.10;;;;;;;7.71;100.00;95667.41;5048065;28;20036;-69
2023/05/11 01:51:32;;;;;;;3.55;2.08;;;;;;;7.76;100.00;95663.56;5059374;28;20094;-69
2023/05/11 01:53:58;;;;;;;2.47;1.90;;;;;;;7.89;100.00;95666.88;5048997;28;20039;-68
2023/05/11 01:56:26;;;;;;;3.75;2.00;;;;;;;7.92;100.00;95665.75;5051377;28;20017;-69
2023/05/11 01:58:54;;;;;;;3.42;3.13;;;;;;;7.91;100.00;95667.56;5051863;28;20029;-69
2023/05/11 02:01:20;;;;;;;5.55;3.85;;;;;;;7.95;100.00;95658.50;5049703;28;20094;-69
2023/05/11 02:03:47;;;;;;;4.78;2.80;;;;;;;7.98;100.00;95670.53;5048487;28;20021;-69
2023/05/11 02:06:14;;;;;;;3.47;2.17;;;;;;;7.96;100.00;95660.16;5051550;28;20043;-68
2023/05/11 02:08:40;;;;;;;3.05;2.00;;;;;;;7.98;100.00;95663.47;5047785;28;20099;-69
2023/05/11 02:11:09;;;;;;;2.53;1.95;;;;;;;8.03;100.00;95666.53;5048790;28;20056;-69
2023/05/11 02:13:36;;;;;;;2.97;2.00;;;;;;;8.08;100.00;95663.56;5052391;28;20021;-69
2023/05/11 02:16:04;;;;;;;4.32;2.17;;;;;;;8.15;100.00;95669.13;5053982;28;20049;-69
2023/05/11 02:18:31;;;;;;;2.67;2.05;;;;;;;8.16;100.00;95655.06;5049151;28;20041;-69
2023/05/11 02:20:59;;;;;;;4.78;2.00;;;;;;;8.14;100.00;95663.03;5047060;28;20448;-69
2023/05/11 02:23:26;;;;;;;2.00;1.80;;;;;;;8.17;100.00;95661.97;5053361;28;20511;-69
2023/05/11 02:25:53;;;;;;;3.50;1.92;;;;;;;8.19;100.00;95665.28;5048057;28;20056;-69
2023/05/11 02:28:18;;;;;;;3.35;1.58;;;;;;;8.23;100.00;95663.25;5049685;28;20025;-69
2023/05/11 02:30:47;;;;;;;4.55;1.90;;;;;;;8.22;100.00;95662.41;5052996;28;20078;-69
2023/05/11 02:33:24;;;;;;;3.67;1.88;;;;;;;8.23;100.00;95661.44;5046974;28;20148;-69
2023/05/11 02:35:52;;;;;;;1.98;1.77;;;;;;;8.25;100.00;95662.13;5048979;28;20060;-69
2023/05/11 02:38:19;;;;;;;6.68;2.10;;;;;;;8.27;100.00;95652.34;5049529;28;20035;-69
2023/05/11 02:40:50;;;;;;;1.95;1.80;;;;;;;8.28;100.00;95661.06;5050131;28;20048;-69
2023/05/11 02:43:22;;;;;;;2.65;1.80;;;;;;;8.37;100.00;95651.59;5049507;28;20040;-69
2023/05/11 02:45:51;;;;;;;2.25;1.83;;;;;;;8.45;100.00;95655.22;5049232;28;20036;-69
2023/05/11 02:48:31;;;;;;;3.83;2.05;;;;;;;8.40;100.00;95643.47;5048320;28;20215;-69
2023/05/11 02:50:59;;;;;;;2.83;1.85;;;;;;;8.39;100.00;95649.66;5050163;28;20155;-69
2023/05/11 02:53:27;;;;;;;2.92;1.92;;;;;;;8.36;100.00;95650.75;5034316;28;20017;-69
2023/05/11 02:55:56;;;;;;;7.30;1.95;;;;;;;8.36;100.00;95648.13;5048499;28;20024;-69
2023/05/11 02:58:22;;;;;;;3.40;1.90;;;;;;;8.42;100.00;95638.91;5050442;28;20139;-68
2023/05/11 03:00:48;;;;;;;2.50;1.75;;;;;;;8.42;100.00;95638.91;5051306;28;20047;-69
2023/05/11 03:03:13;;;;;;;6.95;2.17;;;;;;;8.39;100.00;95641.78;5044795;28;20029;-69
2023/05/11 03:05:39;;;;;;;4.60;1.90;;;;;;;8.36;100.00;95639.44;5052906;28;20025;-69
2023/05/11 03:08:05;;;;;;;2.40;1.90;;;;;;;8.34;100.00;95636.13;5047484;28;20025;-69
2023/05/11 03:10:31;;;;;;;4.63;1.90;;;;;;;8.33;100.00;95630.03;5052232;28;20020;-69
2023/05/11 03:12:57;;;;;;;2.15;1.75;;;;;;;8.34;100.00;95626.44;5050770;28;20021;-69
2023/05/11 03:15:23;;;;;;;2.30;1.75;;;;;;;8.28;100.00;95619.91;5047670;28;20018;-69
2023/05/11 03:17:52;;;;;;;3.47;1.77;;;;;;;8.25;100.00;95616.72;5050438;28;20025;-69
2023/05/11 03:20:21;;;;;;;2.63;2.08;;;;;;;8.26;100.00;95616.59;5050522;28;20025;-69
2023/05/11 03:22:48;;;;;;;1.95;1.77;;;;;;;8.27;100.00;95609.56;5069081;28;20025;-69
2023/05/11 03:25:15;;;;;;;3.58;1.80;;;;;;;8.23;100.00;95601.13;5062065;28;20021;-69
2023/05/11 03:27:42;;;;;;;2.97;1.95;;;;;;;8.21;100.00;95599.59;5049291;28;20449;-69
2023/05/11 03:30:10;;;;;;;6.30;2.25;;;;;;;8.19;100.00;95601.53;5047692;28;20025;-69
2023/05/11 03:32:35;;;;;;;5.32;1.88;;;;;;;8.12;100.00;95603.81;5049379;28;20482;-68
2023/05/11 03:35:01;;;;;;;2.88;2.20;;;;;;;8.13;100.00;95602.88;5047762;28;20056;-69
2023/05/11 03:37:30;;;;;;;6.15;2.35;;;;;;;8.12;100.00;95601.19;5048037;28;20021;-69
2023/05/11 03:39:58;;;;;;;3.47;2.38;;;;;;;8.12;100.00;95601.19;5047410;28;20057;-68
2023/05/11 03:42:25;;;;;;;2.97;2.38;;;;;;;8.20;100.00;95604.00;5049694;28;20017;-69
2023/05/11 03:44:54;;;;;;;9.55;2.08;;;;;;;8.16;100.00;95598.16;5052024;28;20040;-68
2023/05/11 03:47:21;;;;;;;2.00;1.80;;;;;;;8.12;100.00;95601.19;5049793;28;20059;-69
2023/05/11 03:49:48;;;;;;;2.65;2.00;;;;;;;8.10;100.00;95592.63;5060864;28;20098;-68
2023/05/11 03:52:15;;;;;;;3.40;2.08;;;;;;;8.08;100.00;95591.94;5051373;28;20032;-69
2023/05/11 03:54:42;;;;;;;2.75;1.80;;;;;;;8.01;100.00;95595.06;5050292;28;20020;-69
2023/05/11 03:57:11;;;;;;;2.45;1.90;;;;;;;7.95;100.00;95595.56;5050871;28;20029;-69
2023/05/11 03:59:38;;;;;;;5.47;2.10;;;;;;;7.85;100.00;95592.88;5052510;28;20032;-69
2023/05/11 04:02:03;;;;;;;2.58;1.52;;;;;;;7.77;100.00;95587.47;5057817;28;20039;-69
2023/05/11 04:04:29;;;;;;;3.08;2.15;;;;;;;7.68;100.00;95593.44;5048138;28;20025;-69
2023/05/11 04:06:56;;;;;;;7.22;2.33;;;;;;;7.65;100.00;95588.47;5055089;28;20032;-69
2023/05/11 04:09:21;;;;;;;6.97;2.50;;;;;;;7.64;100.00;95585.03;5056383;28;20202;-69
2023/05/11 04:11:47;;;;;;;2.92;2.10;;;;;;;7.62;100.00;95588.72;5069311;28;20653;-69
2023/05/11 04:14:12;;;;;;;5.05;2.47;;;;;;;7.59;100.00;95592.41;5070907;28;20044;-69
2023/05/11 04:16:38;;;;;;;6.28;2.22;;;;;;;7.54;100.00;95590.19;5053659;28;20063;-69
2023/05/11 04:19:03;;;;;;;4.22;2.33;;;;;;;7.50;100.00;95583.50;5055739;28;20053;-69
2023/05/11 04:21:29;;;;;;;6.63;2.80;;;;;;;7.50;100.00;95590.56;5050836;28;20502;-69
2023/05/11 04:23:55;;;;;;;7.43;2.63;;;;;;;7.55;100.00;95585.75;5054837;28;20017;-69
2023/05/11 04:26:20;;;;;;;5.43;2.40;;;;;;;7.57;100.00;95586.47;5056172;28;20033;-69
2023/05/11 04:28:46;;;;;;;5.25;2.20;;;;;;;7.58;100.00;95586.34;5052246;28;20025;-69
2023/05/11 04:31:11;;;;;;;2.25;1.85;;;;;;;7.62;100.00;95594.78;5053469;28;20029;-69
2023/05/11 04:33:37;;;;;;;5.00;2.05;;;;;;;7.65;100.00;95594.53;5054779;28;20021;-69
2023/05/11 04:36:02;;;;;;;5.30;2.38;;;;;;;7.67;100.00;95587.38;5055270;28;20032;-69
2023/05/11 04:38:28;;;;;;;4.45;2.42;;;;;;;7.71;100.00;95588.78;5054318;28;20041;-69
2023/05/11 04:40:53;;;;;;;4.45;1.90;;;;;;;7.78;100.00;95588.28;5054532;28;20029;-69
2023/05/11 04:43:19;;;;;;;2.40;1.90;;;;;;;7.84;100.00;95578.13;5053739;28;20103;-69
2023/05/11 04:45:48;;;;;;;6.78;2.30;;;;;;;7.89;100.00;95580.38;5054626;28;20020;-69
2023/05/11 04:48:14;;;;;;;4.78;2.30;;;;;;;7.92;100.00;95585.34;5052995;28;20116;-69
2023/05/11 04:50:39;;;;;;;6.10;2.30;;;;;;;7.96;100.00;95585.94;5055041;28;20057;-68
2023/05/11 04:53:05;;;;;;;6.53;2.60;;;;;;;7.99;100.00;95588.28;5054462;28;20056;-69
2023/05/11 04:55:30;;;;;;;4.32;2.20;;;;;;;8.06;100.00;95588.59;5056749;28;20024;-69
2023/05/11 04:57:55;;;;;;;3.30;2.10;;;;;;;8.04;100.00;95583.50;5037762;28;20025;-69
2023/05/11 05:00:21;;;;;;;2.83;2.25;;;;;;;8.07;100.00;95592.88;5053630;28;20493;-69
2023/05/11 05:02:46;;;;;;;3.03;2.05;;;;;;;8.12;100.00;95593.34;5056620;28;20443;-69
2023/05/11 05:05:12;;;;;;;2.75;2.03;;;;;;;8.17;100.00;95593.78;5055172;28;20025;-69
2023/05/11 05:07:37;;;;;;;3.70;2.10;;;;;;;8.25;100.00;95593.13;5052215;28;20495;-69
2023/05/11 05:10:07;;;;;;;2.90;1.90;;;;;;;8.34;100.00;95596.78;5052023;28;20032;-69
2023/05/11 05:12:33;;;;;;;4.93;2.90;;;;;;;8.38;100.00;95598.97;5067901;28;20328;-69
2023/05/11 05:14:58;;;;;;;4.55;2.10;;;;;;;8.40;100.00;95597.09;5053194;28;20051;-69
2023/05/11 05:17:24;;;;;;;8.77;2.22;;;;;;;8.43;100.00;95596.81;5050391;28;20025;-69
2023/05/11 05:19:49;;;;;;;10.57;2.47;;;;;;;8.49;100.00;95603.31;5054368;28;20064;-69
2023/05/11 05:22:15;;;;;;;3.95;2.30;;;;;;;8.53;100.00;95591.66;5054787;28;20037;-69
2023/05/11 05:24:40;;;;;;;2.33;2.10;;;;;;;8.62;100.00;95603.16;5051922;28;20033;-69
2023/05/11 05:27:06;;;;;;;6.80;2.50;;;;;;;8.68;100.00;95597.38;5056392;28;20115;-69
2023/05/11 05:29:31;;;;;;;4.30;2.30;;;;;;;8.79;100.00;95598.22;5052845;28;20027;-69
2023/05/11 05:31:58;;;;;;;2.78;2.05;;;;;;;8.85;100.00;95598.50;5054279;28;20033;-70
2023/05/11 05:34:24;;;;;;;5.05;2.30;;;;;;;8.87;100.00;95596.59;5053423;28;20036;-69
2023/05/11 05:36:49;;;;;;;3.65;1.90;;;;;;;8.91;100.00;95591.06;5055583;28;20041;-69
2023/05/11 05:39:15;;;;;;;4.18;2.47;;;;;;;8.95;100.00;95592.44;5051960;28;20087;-69
2023/05/11 05:41:41;;;;;;;3.67;2.10;;;;;;;9.04;100.00;95596.91;5052215;28;20438;-69
2023/05/11 05:44:07;;;;;;;4.95;2.30;;;;;;;9.12;100.00;95593.63;5052298;28;20032;-69
2023/05/11 05:46:32;;;;;;;6.60;2.47;;;;;;;9.24;100.00;95596.94;5051166;28;20547;-69
2023/05/11 05:48:57;;;;;;;3.58;2.10;;;;;;;9.37;100.00;95587.00;5050648;28;20057;-69
2023/05/11 05:51:23;;;;;;;3.65;2.20;;;;;;;9.49;100.00;95590.31;5047444;28;20375;-68
2023/05/11 05:53:48;;;;;;;4.20;2.03;;;;;;;9.57;100.00;95589.63;5051429;28;20082;-69
2023/05/11 05:56:14;;;;;;;3.38;2.30;;;;;;;9.62;100.00;95584.81;5052214;28;20029;-67
2023/05/11 05:58:40;;;;;;;6.97;2.38;;;;;;;9.72;100.00;95585.63;5048826;28;20497;-68
2023/05/11 06:01:05;;;;;;;4.40;3.38;;;;;;;9.81;100.00;95577.88;5054946;28;20413;-70
2023/05/11 06:03:31;;;;;;;9.50;4.25;;;;;;;10.12;100.00;95580.31;5051948;28;20485;-69
2023/05/11 06:05:57;;;;;;;5.72;3.20;;;;;;;10.45;100.00;95578.19;5045333;28;20122;-68
2023/05/11 06:08:22;;;;;;;3.28;1.98;;;;;;;10.88;99.61;95584.66;5064744;28;20020;-68
2023/05/11 06:10:48;;;;;;;5.35;2.58;;;;;;;11.20;96.53;95572.00;5052751;28;20075;-69
2023/05/11 06:13:13;;;;;;;5.38;2.80;;;;;;;11.31;94.71;95568.31;5036462;28;20107;-69
2023/05/11 06:15:39;;;;;;;2.85;1.88;;;;;;;11.37;93.68;95574.78;5035229;28;20023;-69
2023/05/11 06:18:04;;;;;;;5.28;2.20;;;;;;;11.31;93.40;95568.31;5053579;28;20052;-69
2023/05/11 06:20:32;;;;;;;5.78;2.28;;;;;;;11.29;93.04;95565.00;5051650;28;20103;-70
2023/05/11 06:22:58;;;;;;;4.40;2.15;;;;;;;11.38;92.58;95572.00;5053609;28;20025;-68
2023/05/11 06:25:23;;;;;;;6.75;2.38;;;;;;;11.60;92.51;95569.88;5054363;28;20028;-67
2023/05/11 06:27:48;;;;;;;4.97;4.20;;;;;;;11.68;91.67;95567.34;5036195;28;20052;-69
2023/05/11 06:30:14;;;;;;;5.50;3.60;;;;;;;11.86;91.01;95569.13;5052725;28;20046;-69
2023/05/11 06:32:39;;;;;;;6.10;5.00;;;;;;;11.85;88.29;95563.03;5066045;28;20024;-69
2023/05/11 06:35:05;;;;;;;7.90;3.95;;;;;;;11.95;87.99;95567.41;5052916;28;20040;-69
2023/05/11 06:37:31;;;;;;;5.90;3.33;;;;;;;12.03;87.66;95563.00;5051639;28;20029;-69
2023/05/11 06:39:57;;;;;;;4.63;3.63;;;;;;;12.18;86.68;95565.94;5052569;28;20043;-69
2023/05/11 06:42:23;;;;;;;9.40;3.33;;;;;;;12.07;87.09;95562.72;5051555;28;20485;-69
2023/05/11 06:44:48;;;;;;;5.28;4.45;;;;;;;11.90;84.38;95570.47;5051620;28;20025;-69
2023/05/11 06:47:14;;;;;;;6.60;5.18;;;;;;;11.81;84.82;95566.94;5043465;28;20025;-68
2023/05/11 06:49:40;;;;;;;7.78;5.13;;;;;;;11.80;85.82;95569.72;5050260;28;20031;-69
2023/05/11 06:52:06;;;;;;;8.40;5.45;;;;;;;11.80;85.91;95570.56;5050882;28;20032;-69
2023/05/11 06:54:31;;;;;;;8.90;4.53;;;;;;;11.83;85.58;95561.53;5049466;28;20021;-69
2023/05/11 06:56:56;;;;;;;8.38;4.65;;;;;;;11.86;84.01;95571.78;5052247;28;20528;-69
2023/05/11 06:59:22;;;;;;;7.20;5.47;;;;;;;11.90;84.33;95573.13;5050792;28;20263;-69
2023/05/11 07:01:47;;;;;;;7.25;4.95;;;;;;;11.99;83.48;95566.09;5051874;28;20029;-69
2023/05/11 07:04:13;;;;;;;3.83;2.67;;;;;;;12.14;82.40;95567.19;5050545;28;20397;-68
2023/05/11 07:06:38;;;;;;;4.15;2.75;;;;;;;12.31;82.14;95569.97;5050519;28;20035;-69
2023/05/11 07:09:03;;;;;;;3.63;2.15;;;;;;;12.41;79.97;95565.41;5052592;28;20021;-69
2023/05/11 07:11:30;;;;;;;4.82;2.45;;;;;;;12.38;80.03;95564.88;5052317;28;20052;-69
2023/05/11 07:13:55;;;;;;;4.75;2.55;;;;;;;12.39;78.52;95567.38;5033957;28;20025;-69
2023/05/11 07:16:22;;;;;;;8.32;2.47;;;;;;;12.49;79.35;95562.00;5053198;28;20025;-69
2023/05/11 07:18:47;;;;;;;4.38;3.00;;;;;;;12.53;78.73;95559.84;5045995;28;20032;-71
2023/05/11 07:21:13;;;;;;;4.30;1.80;;;;;;;12.67;77.77;95569.84;5048769;28;20025;-69
2023/05/11 07:23:38;;;;;;;3.65;2.20;;;;;;;13.00;77.05;95562.03;5052737;28;20108;-69
2023/05/11 07:26:07;;;;;;;3.40;1.85;;;;;;;13.35;75.38;95561.13;5049104;28;20049;-68
2023/05/11 07:28:34;;;;;;;16.25;9.68;;;;;;;14.00;74.47;95557.72;5053468;28;20031;-68
2023/05/11 07:31:00;;;;;;;5.82;4.45;;;;;;;14.29;72.50;95564.31;5051614;28;20029;-68
2023/05/11 07:33:25;;;;;;;7.65;2.10;;;;;;;14.50;70.17;95555.00;5067878;28;20031;-69
2023/05/11 07:35:51;;;;;;;5.28;2.40;;;;;;;14.84;69.15;95555.75;5052244;28;20032;-69
2023/05/11 07:38:17;;;;;;;6.28;2.20;;;;;;;14.93;70.10;95557.34;5048421;28;20033;-69
2023/05/11 07:40:42;;;;;;;3.97;1.65;;;;;;;14.66;69.87;95553.28;5051869;28;20122;-69
2023/05/11 07:43:08;;;;;;;2.67;1.83;;;;;;;14.67;68.92;95555.78;5054337;28;20055;-69
2023/05/11 07:45:33;;;;;;;4.30;2.30;;;;;;;15.33;64.84;95547.53;5068637;28;20031;-70
2023/05/11 07:47:59;;;;;;;3.22;1.83;;;;;;;15.41;65.31;95541.38;5053562;28;20021;-72
2023/05/11 07:50:24;;;;;;;2.97;1.90;;;;;;;16.47;61.84;95547.81;5056415;28;20032;-70
2023/05/11 07:52:50;;;;;;;3.30;1.58;;;;;;;17.41;58.79;95543.69;5056401;28;20087;-69
2023/05/11 07:55:15;;;;;;;2.58;1.70;;;;;;;17.98;55.12;95537.66;5054546;28;20393;-70
2023/05/11 07:57:41;;;;;;;2.28;1.70;;;;;;;18.68;53.14;95532.41;5055334;28;20021;-69
2023/05/11 08:00:07;;;;;;;1.73;1.27;;;;;;;18.86;52.90;95529.22;5071501;28;20463;-70
2023/05/11 08:02:32;;;;;;;2.97;1.50;;;;;;;18.74;51.41;95528.13;5070212;28;20032;-69
2023/05/11 08:04:58;;;;;;;2.95;1.70;;;;;;;19.15;49.07;95526.50;5070169;28;20120;-69
2023/05/11 08:07:23;;;;;;;2.40;1.30;;;;;;;19.46;48.05;95522.50;5055235;28;20021;-69
2023/05/11 08:09:49;;;;;;;3.55;1.60;;;;;;;19.72;48.14;95521.69;5055878;28;20025;-68
2023/05/11 08:12:15;;;;;;;3.35;1.45;;;;;;;20.03;47.24;95519.47;5055664;28;20024;-69
2023/05/11 08:14:42;;;;;;;2.75;1.77;;;;;;;20.27;44.21;95518.03;5054534;28;20024;-69
2023/05/11 08:17:07;;;;;;;3.63;1.35;;;;;;;20.66;44.37;95512.81;5054387;28;22226;-69
2023/05/11 08:19:33;;;;;;;2.60;1.80;;;;;;;20.24;45.30;95507.78;5055748;28;20017;-68
2023/05/11 08:22:00;;;;;;;2.90;1.50;;;;;;;19.75;44.18;95507.94;5054377;28;20025;-69
2023/05/11 08:24:25;;;;;;;1.15;0.90;;;;;;;20.67;43.06;95505.59;5057304;28;20021;-69
2023/05/11 08:26:51;;;;;;;3.42;1.27;;;;;;;20.74;42.93;95503.75;5051904;28;20107;-69
2023/05/11 08:29:16;;;;;;;1.90;1.30;;;;;;;20.98;44.08;95506.78;5069948;28;20023;-69
2023/05/11 08:31:41;;;;;;;1.85;1.52;;;;;;;20.97;43.72;95505.94;5051626;28;20025;-71
2023/05/11 08:34:07;;;;;;;4.05;1.20;;;;;;;20.81;43.48;95506.44;5071425;28;20025;-70
2023/05/11 08:36:34;;;;;;;1.45;1.33;;;;;;;20.88;41.60;95504.56;5052608;28;20024;-69
2023/05/11 08:39:00;;;;;;;3.80;1.70;;;;;;;21.11;40.38;95498.72;5055268;28;20041;-70
2023/05/11 08:41:25;;;;;;;2.90;1.45;;;;;;;21.09;41.73;95494.59;5054463;28;20021;-70
2023/05/11 08:43:51;;;;;;;1.85;1.17;;;;;;;21.26;39.73;95502.94;5038639;28;20021;-69
2023/05/11 08:46:23;;;;;;;1.83;1.20;;;;;;;20.61;41.66;95491.25;5053016;28;20104;-70
2023/05/11 08:48:49;;;;;;;2.47;1.30;;;;;;;20.62;43.10;95482.19;5054195;28;20013;-69
2023/05/11 08:51:14;;;;;;;2.55;1.50;;;;;;;20.92;42.09;95488.91;5053413;28;20029;-70
2023/05/11 08:53:40;;;;;;;1.55;1.27;;;;;;;20.89;41.39;95492.81;5069086;28;20021;-68
2023/05/11 08:56:07;;;;;;;3.70;1.35;;;;;;;20.30;40.67;95485.53;5056434;28;20032;-70
2023/05/11 08:58:36;;;;;;;4.35;1.27;;;;;;;20.98;40.33;95482.69;5051365;28;20021;-69
2023/05/11 09:01:03;;;;;;;1.92;1.23;;;;;;;21.36;40.34;95478.38;5054601;28;20040;-72
2023/05/11 09:03:30;;;;;;;3.08;1.50;;;;;;;21.57;40.14;95486.06;5051991;28;20468;-71
2023/05/11 09:05:57;;;;;;;2.08;1.20;;;;;;;21.21;39.57;95479.47;5053928;28;20024;-70
2023/05/11 09:08:25;;;;;;;2.95;1.50;;;;;;;21.74;38.91;95477.53;5051635;28;20017;-71
2023/05/11 09:10:51;;;;;;;3.08;1.50;;;;;;;20.64;39.11;95479.28;5053802;28;20111;-69
2023/05/11 09:13:16;;;;;;;2.03;1.40;;;;;;;20.69;40.17;95480.31;5053752;28;20064;-70
2023/05/11 09:15:42;;;;;;;3.60;1.50;;;;;;;20.64;40.00;95477.44;5050469;28;20029;-67
2023/05/11 09:18:07;;;;;;;2.33;1.00;;;;;;;21.06;38.20;95485.13;5052944;28;20017;-70
2023/05/11 09:20:33;;;;;;;3.35;1.70;;;;;;;21.23;41.67;95479.28;5054802;28;20044;-71
2023/05/11 09:23:00;;;;;;;3.90;1.67;;;;;;;21.72;39.53;95474.25;5054331;28;20111;-71
2023/05/11 09:25:30;;;;;;;6.60;2.22;;;;;;;20.99;37.91;95471.75;5053121;28;20105;-69
2023/05/11 09:27:58;;;;;;;2.22;1.40;;;;;;;20.74;39.89;95474.31;5053927;28;20084;-70
2023/05/11 09:30:23;;;;;;;1.88;1.00;;;;;;;21.45;38.92;95469.88;5050533;28;20074;-71
2023/05/11 09:32:54;;;;;;;1.90;1.27;;;;;;;20.70;39.77;95468.56;5055284;28;20028;-70
2023/05/11 09:35:24;;;;;;;1.88;1.08;;;;;;;21.01;39.41;95471.56;5054446;28;20025;-71
2023/05/11 09:38:08;;;;;;;1.92;1.20;;;;;;;20.99;38.62;95461.06;5053209;28;20037;-70
2023/05/11 09:40:36;;;;;;;1.80;1.08;;;;;;;20.83;39.11;95465.06;5050670;28;20069;-71
2023/05/11 09:43:14;;;;;;;1.52;1.30;;;;;;;19.56;42.12;95455.31;5052146;28;20040;-71
2023/05/11 09:45:41;;;;;;;2.22;1.13;;;;;;;19.01;43.51;95459.78;5053635;28;20048;-69
2023/05/11 09:48:23;;;;;;;1.15;1.00;;;;;;;18.25;44.41;95469.44;5053850;28;20096;-70
2023/05/11 09:50:57;;;;;;;1.30;1.05;;;;;;;18.15;44.06;95468.94;5053865;28;20092;-70
2023/05/11 09:53:44;;;;;;;4.72;2.10;;;;;;;18.02;46.29;95459.88;5053314;28;20024;-70
2023/05/11 09:56:10;;;;;;;1.67;1.20;;;;;;;17.50;45.65;95461.03;5053161;28;20421;-69
2023/05/11 09:58:53;;;;;;;1.75;1.20;;;;;;;17.50;47.16;95459.22;5052968;28;20025;-70
2023/05/11 10:01:29;;;;;;;2.88;1.50;;;;;;;18.84;44.21;95442.44;5053213;28;20443;-69
2023/05/11 10:03:54;;;;;;;3.10;1.38;;;;;;;19.97;41.07;95435.63;5053162;28;20020;-70
2023/05/11 10:06:20;;;;;;;1.52;1.20;;;;;;;20.50;40.60;95441.06;5048835;28;20485;-69
2023/05/11 10:08:46;;;;;;;3.03;1.30;;;;;;;21.12;40.08;95444.13;5053093;28;20035;-70
2023/05/11 10:11:11;;;;;;;5.03;1.40;;;;;;;21.45;39.73;95442.28;5050769;28;20060;-70
2023/05/11 10:13:38;;;;;;;1.25;1.05;;;;;;;21.69;37.68;95442.56;5053004;28;20035;-70
2023/05/11 10:16:05;;;;;;;3.20;1.33;;;;;;;21.58;38.40;95433.34;5052982;28;20497;-70
2023/05/11 10:18:32;;;;;;;2.15;1.27;;;;;;;21.52;39.55;95436.88;5050715;28;20561;-70
2023/05/11 10:20:58;;;;;;;1.98;1.00;;;;;;;21.38;39.52;95436.13;5048988;28;20048;-70
2023/05/11 10:23:27;;;;;;;3.17;1.30;;;;;;;20.26;40.78;95436.22;5053721;28;20497;-70
2023/05/11 10:25:53;;;;;;;1.73;1.35;;;;;;;19.42;44.44;95431.31;5053140;28;20029;-70
2023/05/11 10:28:21;;;;;;;2.92;1.25;;;;;;;18.66;44.49;95435.81;5050893;28;20025;-70
2023/05/11 10:30:47;;;;;;;3.53;1.27;;;;;;;17.99;45.48;95430.09;5051384;28;20027;-68
2023/05/11 10:33:13;;;;;;;4.13;1.60;;;;;;;17.65;47.91;95427.19;5054113;28;20040;-69
2023/05/11 10:35:39;;;;;;;2.25;1.50;;;;;;;18.20;49.18;95423.91;5053736;28;20024;-70
2023/05/11 10:38:08;;;;;;;3.70;1.40;;;;;;;18.97;47.09;95429.13;5052756;28;20481;-69
2023/05/11 10:40:40;;;;;;;2.55;1.30;;;;;;;18.80;46.56;95420.69;5066717;28;20033;-69
2023/05/11 10:43:12;;;;;;;2.75;1.70;;;;;;;18.93;47.49;95416.41;5050876;28;20500;-69
2023/05/11 10:46:15;;;;;;;2.40;1.48;;;;;;;20.00;43.71;95405.81;5050963;28;20054;-69
2023/05/11 10:48:47;;;;;;;1.67;1.25;;;;;;;20.54;44.88;95402.19;5052055;28;20044;-69
2023/05/11 10:51:25;;;;;;;3.60;1.50;;;;;;;21.42;42.00;95405.22;5051805;28;20021;-69
2023/05/11 10:54:02;;;;;;;26.73;3.13;;;;;;;21.95;39.92;95393.25;5048596;28;20031;-69
2023/05/11 10:56:46;;;;;;;2.50;1.02;;;;;;;21.53;39.76;95393.81;5052449;28;20017;-69
2023/05/11 10:59:23;;;;;;;0.98;0.88;;;;;;;22.13;40.24;95391.66;5049507;28;20028;-69
2023/05/11 11:01:57;;;;;;;2.08;0.77;;;;;;;23.18;36.00;95388.91;5048882;28;20035;-70
2023/05/11 11:04:23;;;;;;;2.47;0.93;;;;;;;23.26;35.22;95394.00;5047492;28;20028;-71
2023/05/11 11:07:03;;;;;;;2.60;1.65;;;;;;;23.18;35.30;95383.56;5051698;28;20032;-70
2023/05/11 11:09:48;;;;;;;1.10;1.00;;;;;;;23.84;34.73;95380.88;5052296;28;20028;-70
2023/05/11 11:12:13;;;;;;;1.33;1.07;;;;;;;23.37;35.97;95376.28;5048386;28;20021;-70
2023/05/11 11:15:03;;;;;;;1.63;1.20;;;;;;;23.39;35.94;95382.25;5053332;28;20341;-70
2023/05/11 11:17:34;;;;;;;4.80;1.27;;;;;;;21.51;38.70;95387.84;5052045;28;20025;-70
2023/05/11 11:20:06;;;;;;;1.85;1.40;;;;;;;20.65;41.22;95380.13;5065837;28;20032;-69
2023/05/11 11:22:34;;;;;;;1.60;1.30;;;;;;;18.68;46.54;95384.94;5049962;28;20599;-71
2023/05/11 11:25:04;;;;;;;2.25;1.05;;;;;;;18.58;46.50;95382.69;5051467;28;20083;-69
2023/05/11 11:27:38;;;;;;;3.17;1.50;;;;;;;17.82;48.96;95379.81;5053468;28;20037;-69
2023/05/11 11:30:20;;;;;;;2.83;1.30;;;;;;;17.42;50.85;95379.50;5048337;28;20027;-69
2023/05/11 11:32:47;;;;;;;3.83;1.30;;;;;;;16.47;55.45;95388.38;5052060;28;20036;-69
2023/05/11 11:35:34;;;;;;;1.95;1.23;;;;;;;16.60;54.37;95385.88;5051540;28;20036;-68
2023/05/11 11:38:01;;;;;;;3.85;1.50;;;;;;;16.49;53.07;95377.56;5051967;28;20017;-69